Time;durP1;ratioP1;P1;durP2;ratioP2;P2;SDS_P1;SDS_P2;PMS_P1;PMS_P2;Temp;Humidity;BMP_temperature;BMP_pressure;BME280_temperature;BME280_humidity;BME280_pressure;Samples;Min_cycle;Max_cycle;Signal;HPM_P1;HPM_P2
2021/04/13 00:02:29;;;;;;;0.00;0.00;;;5.90;99.90;;;5.52;88.24;100657.03;5066495;28;20037;-49
2021/04/13 00:05:28;;;;;;;0.00;0.00;;;6.00;99.90;;;5.30;90.50;100653.34;5070422;28;20050;-47
2021/04/13 00:07:57;;;;;;;0.00;0.00;;;5.90;99.90;;;5.40;88.69;100652.69;5044171;28;20049;-50
2021/04/13 00:11:03;;;;;;;0.00;0.00;;;5.80;99.90;;;5.41;88.84;100718.97;5048903;28;20047;-50
2021/04/13 00:13:30;;;;;;;0.00;0.00;;;5.80;99.90;;;5.48;87.88;100629.75;4984945;28;20580;-50
2021/04/13 00:16:10;;;;;;;0.40;0.00;;;5.90;99.90;;;5.50;87.52;100620.13;4968682;28;20050;-51
2021/04/13 00:18:41;;;;;;;2.00;0.00;;;5.90;99.90;;;5.47;88.59;100647.00;4969033;28;20042;-46
2021/04/13 00:21:11;;;;;;;0.00;0.00;;;5.90;99.90;;;5.40;89.14;100647.53;4987776;28;20046;-47
2021/04/13 00:23:37;;;;;;;0.00;0.00;;;5.80;99.90;;;5.32;88.83;100629.97;4983391;28;20072;-49
2021/04/13 00:26:08;;;;;;;0.00;0.00;;;5.80;99.90;;;5.21;88.77;100694.47;4985850;28;20567;-49
2021/04/13 00:28:46;;;;;;;0.20;0.00;;;5.70;99.90;;;5.15;89.89;100635.50;4987573;28;20073;-51
2021/04/13 00:31:39;;;;;;;0.10;0.00;;;5.60;99.90;;;5.13;89.75;100617.53;4986657;28;20042;-51
2021/04/13 00:34:27;;;;;;;0.35;0.00;;;5.60;99.90;;;5.10;90.10;100628.06;4971439;28;20097;-52
2021/04/13 00:37:10;;;;;;;0.00;0.00;;;5.60;99.90;;;5.19;89.58;100609.38;4979994;28;20126;-48
2021/04/13 00:39:37;;;;;;;0.00;0.00;;;5.70;99.90;;;5.21;89.45;100617.81;4985938;28;20046;-47
2021/04/13 00:42:09;;;;;;;0.00;0.00;;;5.70;99.90;;;5.37;88.98;100609.81;4968194;28;20047;-48
2021/04/13 00:44:51;;;;;;;0.10;0.00;;;5.70;99.90;;;5.32;88.27;100622.22;4976213;28;20053;-47
2021/04/13 00:47:35;;;;;;;0.00;0.00;;;5.70;99.90;;;5.36;89.00;100646.91;5003981;28;20045;-50
2021/04/13 00:50:25;;;;;;;0.00;0.00;;;5.80;99.90;;;5.43;88.01;100606.81;5031848;28;20041;-47
2021/04/13 00:52:56;;;;;;;0.00;0.00;;;5.80;99.90;;;5.36;89.06;100651.25;5050008;28;20095;-46
2021/04/13 00:55:41;;;;;;;0.00;0.00;;;5.80;99.90;;;5.27;90.90;100642.38;5031691;28;20046;-48
2021/04/13 00:58:40;;;;;;;0.00;0.00;;;5.70;99.90;;;5.39;89.39;100651.06;5040786;28;20028;-46
2021/04/13 01:01:26;;;;;;;0.00;0.00;;;5.80;99.90;;;5.31;91.38;100642.06;5064223;28;20538;-50
2021/04/13 01:04:03;;;;;;;0.03;0.00;;;5.80;99.90;;;5.28;92.21;100647.44;5051774;28;20048;-46
2021/04/13 01:06:34;;;;;;;0.00;0.00;;;5.80;99.90;;;5.41;91.45;100659.53;5047579;28;20028;-49
2021/04/13 01:09:23;;;;;;;0.00;0.00;;;5.80;99.90;;;5.45;92.06;100650.63;5050902;28;20261;-45
2021/04/13 01:11:55;;;;;;;0.00;0.00;;;5.90;99.90;;;5.47;90.17;100639.25;5067298;28;20036;-50
2021/04/13 01:14:24;;;;;;;0.00;0.00;;;5.90;99.90;;;5.52;90.44;100624.25;5069025;28;20052;-49
2021/04/13 01:16:57;;;;;;;0.17;0.00;;;5.90;99.90;;;5.47;89.43;100641.84;5068441;28;20051;-47
2021/04/13 01:19:54;;;;;;;0.10;0.00;;;5.90;99.90;;;5.42;90.65;100651.66;5049710;28;20095;-45
2021/04/13 01:25:31;;;;;;;0.00;0.00;;;5.80;99.90;;;5.58;88.97;100665.19;5068823;28;20503;-47
2021/04/13 01:28:07;;;;;;;0.10;0.00;;;5.90;99.90;;;5.61;91.49;100671.88;5049465;28;20579;-48
2021/04/13 01:30:45;;;;;;;0.00;0.00;;;6.00;99.90;;;5.59;91.39;100666.81;5048658;28;20049;-49
2021/04/13 01:33:40;;;;;;;0.10;0.05;;;6.00;99.90;;;5.54;90.76;100671.50;5064687;28;20500;-45
2021/04/13 01:36:25;;;;;;;0.00;0.00;;;6.00;99.90;;;5.57;90.14;100675.63;5047241;28;20514;-46
2021/04/13 01:39:20;;;;;;;0.00;0.00;;;6.00;99.90;;;5.50;90.47;100684.72;5048790;28;20081;-49
2021/04/13 01:41:59;;;;;;;0.10;0.00;;;5.90;99.90;;;5.41;91.97;100670.69;5048216;28;20559;-44
2021/04/13 01:44:41;;;;;;;0.00;0.00;;;5.90;99.90;;;5.43;90.62;100662.81;5045949;28;20056;-44
2021/04/13 01:47:10;;;;;;;0.47;0.00;;;5.90;99.90;;;5.46;89.54;100665.19;5048478;28;20036;-49
2021/04/13 01:50:01;;;;;;;0.08;0.00;;;5.90;99.90;;;5.43;91.04;100657.66;5046137;28;20032;-47
2021/04/13 01:52:38;;;;;;;0.00;0.00;;;5.90;99.90;;;5.36;90.91;100648.69;5036904;28;20400;-43
2021/04/13 01:55:25;;;;;;;0.28;0.00;;;5.80;99.90;;;5.40;86.21;100660.44;5046602;28;20131;-47
2021/04/13 01:57:59;;;;;;;0.00;0.00;;;5.80;99.90;;;5.26;89.63;100659.66;5047199;28;20525;-49
2021/04/13 02:01:11;;;;;;;0.63;0.00;;;5.70;99.90;;;5.22;87.69;100673.69;5047449;28;20072;-50
2021/04/13 02:04:07;;;;;;;0.00;0.00;;;5.60;99.90;;;5.26;88.08;100675.16;5032636;28;20132;-47
2021/04/13 02:06:50;;;;;;;0.00;0.00;;;5.60;99.90;;;5.24;88.58;100678.75;5047399;28;20400;-47
2021/04/13 02:09:41;;;;;;;0.00;0.00;;;5.60;99.90;;;5.29;85.56;100672.34;5047879;28;20515;-49
2021/04/13 02:12:15;;;;;;;0.00;0.00;;;5.60;99.90;;;5.24;88.90;100678.75;5045052;28;20456;-47
2021/04/13 02:15:06;;;;;;;0.00;0.00;;;5.60;99.90;;;5.16;87.48;100696.56;5047614;28;20055;-48
2021/04/13 02:17:48;;;;;;;0.00;0.00;;;5.60;99.90;;;5.18;86.97;100684.38;5046407;28;20051;-46
2021/04/13 02:20:19;;;;;;;0.00;0.00;;;5.50;99.90;;;5.28;87.86;100675.03;5046471;28;20037;-44
2021/04/13 02:22:47;;;;;;;0.00;0.00;;;5.60;99.90;;;5.18;87.90;100666.28;5046179;28;20452;-47
2021/04/13 02:25:24;;;;;;;0.00;0.00;;;5.60;99.90;;;5.18;86.48;100684.38;5047422;28;20504;-48
2021/04/13 02:27:52;;;;;;;0.00;0.00;;;5.60;99.90;;;5.20;88.03;100679.94;5046158;28;20059;-50
2021/04/13 02:30:43;;;;;;;0.00;0.00;;;5.60;99.90;;;5.16;88.12;100670.75;5047589;28;20104;-47
2021/04/13 02:33:17;;;;;;;0.00;0.00;;;5.60;99.90;;;5.22;83.75;100707.28;5047631;28;20025;-49
2021/04/13 02:35:44;;;;;;;0.00;0.00;;;5.60;99.90;;;5.21;87.35;100678.97;5047319;28;20045;-48
2021/04/13 02:38:26;;;;;;;0.05;0.00;;;5.70;99.90;;;5.21;85.42;100678.97;5047376;28;20061;-49
2021/04/13 02:43:43;;;;;;;0.47;0.00;;;5.70;99.90;;;5.06;87.00;100672.28;4749156;22;20060;-48
2021/04/13 02:46:17;;;;;;;0.00;0.00;;;5.50;99.90;;;5.15;87.13;100669.91;5067483;28;20044;-46
2021/04/13 02:49:00;;;;;;;0.30;0.10;;;5.60;99.90;;;5.15;87.10;100672.50;5066340;28;20055;-45
2021/04/13 02:51:29;;;;;;;0.00;0.00;;;5.60;99.90;;;5.29;84.89;100661.19;5066388;28;20115;-51
2021/04/13 02:53:57;;;;;;;0.00;0.00;;;5.70;99.90;;;5.07;87.42;100656.69;5067294;28;20080;-46
2021/04/13 02:56:36;;;;;;;0.00;0.00;;;5.60;99.90;;;5.22;86.20;100647.88;5071498;28;20032;-46
2021/04/13 02:59:18;;;;;;;0.70;0.00;;;5.60;99.90;;;5.33;85.84;100667.81;5071632;28;20033;-47
2021/04/13 03:02:16;;;;;;;0.45;0.00;;;5.70;99.90;;;5.29;85.58;100687.03;5071536;28;20056;-45
2021/04/13 03:04:48;;;;;;;0.10;0.00;;;5.70;99.90;;;5.33;85.30;100689.28;5071180;28;20117;-46
2021/04/13 03:07:21;;;;;;;0.00;0.00;;;5.70;99.90;;;5.43;83.80;100707.59;5070246;28;20388;-47
2021/04/13 03:10:12;;;;;;;0.00;0.00;;;5.80;99.90;;;5.41;84.54;100712.03;5053673;28;20512;-46
2021/04/13 03:12:49;;;;;;;0.00;0.00;;;5.80;99.90;;;5.32;85.50;100708.31;5071308;28;20058;-44
2021/04/13 03:15:22;;;;;;;0.00;0.00;;;5.70;99.90;;;5.28;86.28;100718.97;5069887;28;20033;-49
2021/04/13 03:17:56;;;;;;;0.00;0.00;;;5.70;99.90;;;5.23;84.05;100721.03;5069849;28;20302;-47
2021/04/13 03:20:28;;;;;;;0.00;0.00;;;5.70;99.90;;;5.25;85.06;100706.25;5071509;28;20029;-46
2021/04/13 03:22:59;;;;;;;0.00;0.00;;;5.70;99.90;;;5.22;86.39;100722.78;5069623;28;20436;-49
2021/04/13 03:25:34;;;;;;;0.10;0.00;;;5.70;99.90;;;5.11;87.83;100734.78;5069581;28;20047;-48
2021/04/13 03:28:05;;;;;;;0.20;0.00;;;5.60;99.90;;;5.08;88.33;100729.84;5069433;28;20040;-45
2021/04/13 03:30:38;;;;;;;0.00;0.00;;;5.50;99.90;;;5.08;87.39;100719.50;5069738;28;20036;-46
2021/04/13 03:33:17;;;;;;;0.00;0.00;;;5.50;99.90;;;4.99;86.88;100726.94;5069580;28;20036;-52
2021/04/13 03:35:44;;;;;;;0.03;0.00;;;5.50;99.90;;;5.17;85.46;100718.88;5069478;28;20032;-47
2021/04/13 03:38:17;;;;;;;0.00;0.00;;;5.50;99.90;;;5.08;87.07;100729.84;5069096;28;20032;-46
2021/04/13 03:40:47;;;;;;;0.00;0.00;;;5.50;99.90;;;5.18;86.35;100723.13;5069322;28;20036;-46
2021/04/13 03:43:15;;;;;;;0.63;0.00;;;5.60;99.90;;;5.17;86.83;100724.06;5070522;28;20048;-46
2021/04/13 03:45:44;;;;;;;0.00;0.00;;;5.60;99.90;;;5.08;87.30;100728.06;5070497;28;20480;-47
2021/04/13 03:48:20;;;;;;;0.00;0.00;;;5.60;99.90;;;5.19;82.46;100706.69;5070416;28;20120;-46
2021/04/13 03:50:53;;;;;;;0.00;0.00;;;5.60;99.90;;;5.12;85.88;100698.53;5070507;28;20033;-47
2021/04/13 03:53:30;;;;;;;0.00;0.00;;;5.50;99.90;;;5.12;83.48;100700.28;5069103;28;20033;-52
2021/04/13 03:56:08;;;;;;;0.00;0.00;;;5.50;99.90;;;4.99;86.76;100690.78;5070831;28;20444;-48
2021/04/13 03:58:50;;;;;;;0.00;0.00;;;5.50;99.90;;;5.00;83.33;100705.34;5070298;28;20383;-47
2021/04/13 04:01:26;;;;;;;0.60;0.00;;;5.50;99.90;;;4.94;85.33;100692.84;5070645;28;20578;-47
2021/04/13 04:03:57;;;;;;;;;;;5.40;99.90;;;4.94;83.22;100699.75;5069350;28;20294;-46
2021/04/13 04:06:54;;;;;;;0.03;0.00;;;5.40;99.90;;;4.94;85.33;100684.28;5070508;28;19955;-45
2021/04/13 04:09:35;;;;;;;0.10;0.00;;;5.40;99.90;;;4.93;83.00;100629.22;5070218;28;20059;-48
2021/04/13 04:12:34;;;;;;;0.57;0.00;;;5.40;99.90;;;4.85;84.96;100648.72;5070293;28;20162;-47
2021/04/13 04:15:09;;;;;;;0.00;0.00;;;5.30;99.90;;;4.81;83.64;100649.88;5068465;28;20040;-47
2021/04/13 04:17:45;;;;;;;1.20;0.00;;;5.30;99.90;;;4.79;85.12;100641.41;5068578;28;20127;-50
2021/04/13 04:20:13;;;;;;;0.00;0.00;;;5.30;99.90;;;4.91;81.75;100625.09;5070214;28;20063;-50
2021/04/13 04:22:54;;;;;;;0.00;0.00;;;5.30;99.90;;;4.74;83.07;100635.72;5068776;28;20106;-51
2021/04/13 04:25:29;;;;;;;0.00;0.00;;;5.20;99.90;;;4.71;82.81;100649.69;5068495;28;20519;-48
2021/04/13 04:28:00;;;;;;;0.00;0.00;;;5.10;99.90;;;4.73;84.67;100605.69;5069774;28;20106;-53
2021/04/13 04:30:34;;;;;;;0.00;0.00;;;5.10;99.90;;;4.71;83.01;100625.63;5068627;28;20115;-46
2021/04/13 04:33:03;;;;;;;0.00;0.00;;;5.10;99.90;;;4.79;81.14;100616.41;5069799;28;20040;-48
2021/04/13 04:35:42;;;;;;;1.85;0.00;;;5.20;99.90;;;4.80;82.81;100612.06;5069858;28;20097;-47
2021/04/13 04:38:13;;;;;;;0.00;0.00;;;5.20;99.90;;;4.86;82.61;100609.09;5069759;28;20071;-47
2021/04/13 04:40:48;;;;;;;0.00;0.00;;;5.30;99.90;;;4.86;81.61;100597.00;5069752;28;20424;-50
2021/04/13 04:43:17;;;;;;;1.27;0.00;;;5.30;99.90;;;4.81;82.60;100557.75;5069440;28;20440;-46
2021/04/13 04:45:43;;;;;;;0.00;0.00;;;5.30;99.90;;;5.03;79.55;100585.53;5069640;28;20102;-48
2021/04/13 04:48:36;;;;;;;0.00;0.00;;;5.40;99.90;;;5.07;79.32;100563.72;5069636;28;20045;-47
2021/04/13 04:51:13;;;;;;;0.00;0.00;;;5.50;99.90;;;5.11;79.56;100580.66;5069377;28;20037;-47
2021/04/13 04:53:42;;;;;;;0.38;0.00;;;5.50;99.90;;;5.08;80.20;100516.31;5069342;28;20548;-48
2021/04/13 04:56:12;;;;;;;0.10;0.00;;;5.50;99.90;;;5.33;76.70;100505.03;5069153;28;20044;-48
2021/04/13 04:58:38;;;;;;;0.00;0.00;;;5.70;99.90;;;5.16;79.75;100567.41;5069351;28;20043;-46
2021/04/13 05:01:06;;;;;;;0.00;0.00;;;5.70;99.90;;;5.27;76.86;100570.06;5067717;28;20039;-44
2021/04/13 05:03:32;;;;;;;0.00;0.00;;;5.70;99.90;;;5.21;78.83;100529.97;5068991;28;20038;-49
2021/04/13 05:05:58;;;;;;;0.00;0.00;;;5.60;99.90;;;5.27;77.79;100549.38;5069142;28;20390;-48
2021/04/13 05:08:25;;;;;;;0.00;0.00;;;5.70;99.90;;;5.28;79.67;100535.53;5068885;28;20094;-47
2021/04/13 05:10:52;;;;;;;0.00;0.00;;;5.70;99.90;;;5.41;77.48;100535.50;5069467;28;20107;-48
2021/04/13 05:13:19;;;;;;;0.00;0.00;;;5.80;99.90;;;5.53;76.48;100592.31;5069072;28;20094;-47
2021/04/13 05:15:45;;;;;;;0.03;0.00;;;5.90;99.90;;;5.71;75.60;100568.63;5068715;28;20510;-45
2021/04/13 05:18:11;;;;;;;0.08;0.00;;;6.10;99.90;;;5.62;77.78;100549.47;5065218;28;20397;-46
2021/04/13 05:20:37;;;;;;;0.00;0.00;;;6.10;99.90;;;5.78;76.89;100578.44;5068157;28;20109;-45
2021/04/13 05:23:04;;;;;;;0.10;0.00;;;6.20;99.90;;;5.80;77.11;100570.56;5067365;28;20040;-50
2021/04/13 05:25:31;;;;;;;0.03;0.00;;;6.30;99.90;;;5.93;76.32;100576.53;5068590;28;20476;-43
2021/04/13 05:27:57;;;;;;;0.00;0.00;;;6.30;99.90;;;6.09;74.80;100558.13;5068503;28;20044;-49
2021/04/13 05:30:24;;;;;;;0.55;0.00;;;6.50;99.90;;;6.25;69.84;100564.63;5068438;28;20484;-48
2021/04/13 05:32:51;;;;;;;0.00;0.00;;;6.70;99.90;;;6.27;74.20;100567.91;5068407;28;20028;-48
2021/04/13 05:35:20;;;;;;;0.10;0.00;;;6.80;99.90;;;6.21;74.82;100596.81;5068807;28;20109;-44
2021/04/13 05:37:46;;;;;;;0.03;0.00;;;6.80;99.90;;;6.25;74.11;100587.91;5068477;28;20535;-45
2021/04/13 05:40:32;;;;;;;0.60;0.47;;;6.70;99.90;;;6.36;69.25;100607.00;5068593;28;20035;-50
2021/04/13 05:43:00;;;;;;;0.25;0.00;;;6.90;99.90;;;6.54;69.86;100583.16;5068189;28;20106;-45
2021/04/13 05:45:30;;;;;;;0.00;0.00;;;7.00;99.90;;;6.53;68.70;100612.56;5066822;28;20039;-46
2021/04/13 05:47:58;;;;;;;2.30;0.00;;;7.00;99.90;;;6.46;73.09;100613.97;5066964;28;20143;-47
2021/04/13 05:50:35;;;;;;;0.57;0.00;;;7.00;99.90;;;6.59;73.54;100612.13;5068275;28;20484;-45
2021/04/13 05:53:03;;;;;;;0.03;0.00;;;7.10;99.90;;;6.62;69.32;100623.97;5068621;28;20036;-46
2021/04/13 05:55:30;;;;;;;0.00;0.00;;;7.20;99.90;;;6.70;68.93;100646.69;5068570;28;20085;-45
2021/04/13 05:58:07;;;;;;;0.35;0.00;;;7.20;99.90;;;6.77;65.96;100617.66;5068306;28;20020;-48
2021/04/13 06:00:33;;;;;;;0.20;0.00;;;7.30;99.90;;;6.80;71.22;100635.53;5066711;28;20036;-47
2021/04/13 06:03:01;;;;;;;0.17;0.00;;;7.30;99.90;;;6.83;66.76;100642.25;5068086;28;20082;-49
2021/04/13 06:05:29;;;;;;;0.08;0.00;;;7.30;99.90;;;6.87;71.00;100628.97;5068272;28;20074;-43
2021/04/13 06:07:56;;;;;;;0.00;0.00;;;7.40;99.90;;;6.89;68.51;100671.09;5067876;28;20036;-43
2021/04/13 06:10:23;;;;;;;0.20;0.00;;;7.40;99.90;;;6.93;69.41;100656.16;5067857;28;20469;-47
2021/04/13 06:12:56;;;;;;;0.10;0.00;;;7.50;99.90;;;6.95;65.54;100639.56;5068036;28;20048;-45
2021/04/13 06:15:25;;;;;;;0.30;0.00;;;7.50;99.90;;;7.07;65.92;100674.09;5067924;28;20461;-47
2021/04/13 06:17:51;;;;;;;0.20;0.20;;;7.60;99.90;;;7.10;68.53;100678.16;5067644;28;20031;-50
2021/04/13 06:20:20;;;;;;;0.10;0.00;;;7.60;99.50;;;7.16;63.66;100683.72;5067753;28;20033;-46
2021/04/13 06:22:48;;;;;;;0.20;0.00;;;7.70;98.50;;;7.17;65.94;100702.69;5067930;28;20033;-43
2021/04/13 06:25:17;;;;;;;0.00;0.00;;;7.70;96.80;;;7.32;62.95;100684.19;5067880;28;20033;-44
2021/04/13 06:27:44;;;;;;;0.25;0.00;;;7.80;94.60;;;7.33;69.13;100692.81;5067360;28;20070;-49
2021/04/13 06:30:11;;;;;;;0.00;0.00;;;7.90;99.30;;;7.36;67.58;100702.94;5067433;28;20029;-50
2021/04/13 06:32:37;;;;;;;0.20;0.00;;;7.90;98.50;;;7.32;61.07;100722.25;5067906;28;20430;-47
2021/04/13 06:35:05;;;;;;;0.10;0.00;;;7.90;94.50;;;7.27;66.22;100714.00;5067449;28;20572;-45
2021/04/13 06:37:33;;;;;;;0.20;0.00;;;7.90;96.50;;;7.36;68.99;100720.25;5067468;28;20045;-48
2021/04/13 06:39:58;;;;;;;1.55;0.00;;;7.90;98.40;;;7.33;65.60;100734.28;5066364;28;20088;-49
2021/04/13 06:42:41;;;;;;;3.97;1.27;;;7.90;97.00;;;7.32;62.58;100727.44;5067361;28;20124;-48
2021/04/13 06:45:22;;;;;;;0.13;0.00;;;7.90;95.50;;;7.43;65.20;100740.41;5067414;28;20067;-45
2021/04/13 06:48:35;;;;;;;0.03;0.00;;;8.00;97.70;;;7.43;59.85;100744.75;5067190;28;20120;-46
2021/04/13 06:51:25;;;;;;;0.00;0.00;;;8.00;96.10;;;7.54;63.72;100748.19;5067640;28;20044;-43
2021/04/13 06:53:56;;;;;;;0.20;0.00;;;8.10;98.20;;;7.55;65.12;100756.78;5067319;28;20055;-45
2021/04/13 06:56:55;;;;;;;0.20;0.00;;;8.10;98.00;;;7.57;65.58;100749.69;5066135;28;20048;-49
2021/04/13 06:59:51;;;;;;;0.15;0.15;;;8.10;99.70;;;7.62;60.40;100739.78;5067267;28;20047;-46
2021/04/13 07:02:25;;;;;;;0.13;0.00;;;8.20;95.40;;;7.63;67.92;100760.41;5067080;28;20540;-49
2021/04/13 07:05:09;;;;;;;0.80;0.00;;;8.20;97.10;;;7.58;57.61;100754.75;5067571;28;20041;-48
2021/04/13 07:07:50;;;;;;;0.10;0.00;;;8.20;90.90;;;7.58;59.53;100780.69;5067391;28;20133;-47
2021/04/13 07:10:28;;;;;;;0.00;0.00;;;8.20;90.40;;;7.61;57.32;100759.72;5065575;28;20416;-46
2021/04/13 07:13:07;;;;;;;0.05;0.00;;;8.20;88.70;;;7.74;63.49;100769.16;5066810;28;20082;-46
2021/04/13 07:15:54;;;;;;;0.17;0.00;;;8.30;95.00;;;7.75;59.91;100781.16;5065678;28;20040;-45
2021/04/13 07:18:49;;;;;;;0.05;0.00;;;8.30;91.60;;;7.74;53.57;100766.56;5067445;28;20040;-47
2021/04/13 07:21:30;;;;;;;0.93;0.00;;;8.30;83.30;;;7.77;57.90;100772.31;5066941;28;20052;-44
2021/04/13 07:24:34;;;;;;;0.10;0.00;;;8.30;90.00;;;7.76;58.70;100777.63;5049989;28;20336;-47
2021/04/13 07:27:16;;;;;;;0.57;0.00;;;8.30;88.10;;;7.87;58.74;100785.41;5061490;28;20075;-44
2021/04/13 07:29:59;;;;;;;0.05;0.00;;;8.40;88.90;;;7.84;54.15;100791.66;5064705;28;20039;-46
2021/04/13 07:32:25;;;;;;;0.00;0.00;;;8.40;82.70;;;7.95;57.39;100799.44;5067047;28;20037;-47
2021/04/13 07:34:57;;;;;;;0.00;0.00;;;8.50;83.30;;;7.95;56.93;100796.84;5065459;28;20484;-47
2021/04/13 07:37:39;;;;;;;0.10;0.00;;;8.50;83.00;;;8.01;55.32;100802.50;5067458;28;20394;-49
2021/04/13 07:40:44;;;;;;;0.03;0.00;;;8.60;83.40;;;8.06;56.69;100805.53;5067386;28;20032;-46
2021/04/13 07:43:11;;;;;;;0.00;0.00;;;8.70;89.80;;;8.06;56.45;100802.94;5016320;28;20124;-45
2021/04/13 07:46:14;;;;;;;0.47;0.00;;;8.70;80.90;;;8.07;55.90;100820.16;5070519;28;20052;-46
2021/04/13 07:49:01;;;;;;;0.00;0.00;;;8.60;85.30;;;8.18;53.40;100810.59;5069404;28;20028;-47
2021/04/13 07:51:57;;;;;;;0.08;0.00;;;8.70;79.50;;;8.27;54.93;100812.47;5070289;28;20044;-46
2021/04/13 07:54:45;;;;;;;0.00;0.00;;;8.80;81.90;;;8.25;53.10;100816.97;5070297;28;20051;-45
2021/04/13 07:57:36;;;;;;;1.00;0.00;;;8.80;78.80;;;8.35;52.61;100831.84;5070265;28;20121;-45
2021/04/13 08:00:19;;;;;;;0.10;0.00;;;8.90;78.90;;;8.31;51.88;100826.88;5069183;28;20029;-48
2021/04/13 08:02:55;;;;;;;1.38;0.00;;;8.90;77.80;;;8.35;52.73;100832.69;5070139;28;20515;-45
2021/04/13 08:05:46;;;;;;;0.50;0.00;;;8.90;77.90;;;8.47;51.60;100836.91;5070503;28;20040;-47
2021/04/13 08:08:21;;;;;;;0.10;0.00;;;9.00;76.40;;;8.45;50.40;100838.78;5070544;28;20036;-46
2021/04/13 08:10:47;;;;;;;0.00;0.00;;;9.00;74.00;;;8.49;55.19;100847.19;5070054;28;20047;-47
2021/04/13 08:13:29;;;;;;;0.60;0.00;;;9.00;76.30;;;8.48;53.37;100843.75;5051904;28;20617;-48
2021/04/13 08:15:55;;;;;;;0.20;0.00;;;9.00;76.60;;;8.54;55.62;100840.63;5070308;28;20082;-46
2021/04/13 08:18:39;;;;;;;0.13;0.00;;;9.10;78.10;;;8.59;49.94;100866.25;5068803;28;20065;-48
2021/04/13 08:21:24;;;;;;;0.10;0.00;;;9.20;74.10;;;8.55;50.18;100854.44;5068972;28;20086;-47
2021/04/13 08:23:54;;;;;;;0.15;0.00;;;9.10;72.60;;;8.69;56.29;100864.56;5059267;28;20117;-44
2021/04/13 08:26:42;;;;;;;0.10;0.00;;;9.20;77.90;;;8.79;47.02;100868.09;5070262;28;20044;-45
2021/04/13 08:29:52;;;;;;;1.75;0.00;;;9.40;68.00;;;8.80;48.43;100871.50;5068653;28;20040;-45
2021/04/13 08:32:51;;;;;;;0.47;0.00;;;9.40;70.90;;;8.68;50.24;100888.91;5068529;28;20040;-49
2021/04/13 08:35:32;;;;;;;0.10;0.00;;;9.30;73.20;;;8.58;48.45;100888.78;5069896;28;20106;-44
2021/04/13 08:38:46;;;;;;;0.10;0.00;;;9.30;70.60;;;8.79;50.79;100896.66;5069838;28;20045;-44
2021/04/13 08:41:31;;;;;;;0.03;0.00;;;9.40;72.80;;;8.63;51.36;100898.81;5069867;28;20181;-44
2021/04/13 08:44:34;;;;;;;0.10;0.00;;;9.20;74.80;;;8.67;51.24;100909.81;5069705;28;20051;-44
2021/04/13 08:47:19;;;;;;;0.30;0.00;;;9.30;74.00;;;8.88;52.86;100910.69;5068562;28;20065;-46
2021/04/13 08:49:47;;;;;;;0.03;0.00;;;9.30;75.20;;;9.06;54.23;100905.78;5068379;28;20028;-46
2021/04/13 08:52:51;;;;;;;0.20;0.00;;;9.60;74.80;;;9.08;50.42;100917.69;5069079;28;20028;-45
2021/04/13 08:55:28;;;;;;;0.00;0.00;;;9.70;74.50;;;9.08;54.95;100920.31;5069558;28;20477;-48
2021/04/13 08:58:13;;;;;;;0.10;0.00;;;9.70;75.30;;;8.96;50.72;100927.34;5069739;28;20753;-43
2021/04/13 09:00:53;;;;;;;0.20;0.00;;;9.60;72.20;;;8.74;53.44;100927.38;5069484;28;20093;-44
2021/04/13 09:03:24;;;;;;;0.20;0.00;;;9.40;74.00;;;8.81;55.18;100928.56;5069268;28;20039;-47
2021/04/13 09:06:10;;;;;;;0.75;0.00;;;9.40;76.20;;;8.45;51.66;100942.66;5069420;28;20094;-44
2021/04/13 09:08:55;;;;;;;0.00;0.00;;;9.20;73.20;;;8.40;51.33;100956.94;5067926;28;20534;-44
2021/04/13 09:11:45;;;;;;;0.15;0.00;;;9.00;72.60;;;8.40;49.52;100950.00;5067592;28;20082;-44
2021/04/13 09:14:48;;;;;;;0.52;0.00;;;9.00;72.30;;;8.50;50.60;100955.28;5066176;28;20079;-42
2021/04/13 09:17:24;;;;;;;0.55;0.00;;;9.10;72.70;;;8.50;53.04;100950.09;5057205;28;20066;-45
2021/04/13 09:20:18;;;;;;;;;;;9.10;74.20;;;8.69;50.50;100963.28;5065495;28;20462;-43
2021/04/13 09:23:18;;;;;;;0.80;0.00;;;9.20;72.10;;;8.73;51.97;100967.28;5060813;28;20397;-44
2021/04/13 09:26:18;;;;;;;0.32;0.00;;;9.40;73.80;;;8.49;49.93;100969.22;5048896;28;20071;-45
2021/04/13 09:28:51;;;;;;;0.55;0.00;;;9.20;70.30;;;8.48;53.25;100967.56;5054053;28;20054;-46
2021/04/13 09:31:28;;;;;;;0.10;0.00;;;9.10;73.10;;;8.59;51.91;100964.94;5068772;28;20052;-45
2021/04/13 09:34:10;;;;;;;0.30;0.03;;;9.20;72.30;;;8.61;50.96;100963.06;5068563;28;20040;-44
2021/04/13 09:37:16;;;;;;;2.45;0.00;;;9.20;72.40;;;8.67;50.43;100972.16;5066216;28;20060;-45
2021/04/13 09:40:15;;;;;;;0.10;0.00;;;9.20;71.70;;;8.80;49.60;100978.03;5051065;28;20048;-50
2021/04/13 09:43:02;;;;;;;1.05;0.00;;;9.30;71.80;;;8.79;49.98;100985.00;5068834;28;20093;-47
2021/04/13 09:46:10;;;;;;;0.25;0.00;;;9.40;72.60;;;8.93;48.82;100984.75;5069255;28;20040;-50
2021/04/13 09:49:17;;;;;;;0.50;0.00;;;9.50;72.20;;;9.02;48.63;100992.75;5068358;28;20527;-45
2021/04/13 09:52:09;;;;;;;0.85;0.00;;;9.60;70.00;;;9.17;49.94;100997.56;5068926;28;20052;-48
2021/04/13 09:54:58;;;;;;;0.40;0.00;;;9.70;72.10;;;9.21;49.37;100982.53;5066855;28;20189;-48
2021/04/13 09:57:58;;;;;;;0.30;0.00;;;9.80;70.60;;;9.23;50.57;100988.44;5068092;28;20041;-46
2021/04/13 10:00:38;;;;;;;0.52;0.00;;;9.80;72.60;;;9.23;49.04;100989.28;5068431;28;20041;-49
2021/04/13 10:03:25;;;;;;;0.22;0.10;;;9.90;70.10;;;9.18;47.37;100987.97;5067908;28;20143;-47
2021/04/13 10:05:54;;;;;;;0.40;0.20;;;9.80;70.00;;;9.42;52.81;100991.22;5047908;28;20086;-49
2021/04/13 10:08:34;;;;;;;0.30;0.00;;;10.00;71.40;;;9.92;50.20;100994.06;5029685;28;20044;-48
2021/04/13 10:11:10;;;;;;;1.17;0.10;;;10.40;72.80;;;9.79;48.62;100996.00;5048095;28;20040;-46
2021/04/13 10:14:30;;;;;;;0.40;0.00;;;10.50;70.00;;;9.63;46.21;100979.06;5063276;28;20055;-46
2021/04/13 10:17:36;;;;;;;0.45;0.00;;;10.30;65.70;;;9.73;47.76;100979.13;5047840;28;20029;-47
2021/04/13 10:20:38;;;;;;;1.20;0.20;;;10.40;67.00;;;10.02;48.13;100981.06;5047895;28;20508;-46
2021/04/13 10:24:02;;;;;;;3.65;0.00;;;10.60;69.10;;;9.43;46.21;100986.84;5030141;28;20133;-44
2021/04/13 10:27:11;;;;;;;1.42;0.20;;;10.50;65.90;;;9.64;48.52;100992.88;5041128;28;20036;-50
2021/04/13 10:30:21;;;;;;;0.20;0.10;;;10.30;68.20;;;9.64;48.13;100996.31;5048354;28;20087;-51
2021/04/13 10:33:23;;;;;;;0.35;0.10;;;10.30;68.30;;;9.78;47.51;100984.78;5047740;28;20062;-45
2021/04/13 10:36:13;;;;;;;1.73;0.20;;;10.40;67.60;;;10.04;48.57;100987.78;5047816;28;20056;-49
2021/04/13 10:39:06;;;;;;;0.20;0.00;;;10.50;69.10;;;10.32;46.33;100986.34;5062882;28;20041;-45
2021/04/13 10:42:12;;;;;;;1.70;0.20;;;10.80;66.40;;;10.41;47.19;100982.09;5047990;28;20083;-49
2021/04/13 10:45:08;;;;;;;3.08;0.52;;;10.90;68.40;;;10.27;46.98;100984.13;5059198;28;20126;-45
2021/04/13 10:47:46;;;;;;;1.65;0.10;;;11.00;67.60;;;10.80;48.16;100983.91;5056219;28;20055;-47
2021/04/13 10:51:05;;;;;;;1.67;0.00;;;11.10;68.40;;;10.76;46.07;100984.31;5066608;28;20087;-46
2021/04/13 10:54:06;;;;;;;0.50;0.10;;;11.40;66.20;;;10.70;46.15;100983.06;5066181;28;20526;-47
2021/04/13 10:56:53;;;;;;;1.05;0.10;;;11.30;66.40;;;10.26;46.21;100971.25;5066737;28;20080;-43
2021/04/13 11:00:18;;;;;;;2.28;0.00;;;11.00;66.20;;;10.38;45.43;100980.63;5065587;28;20048;-45
2021/04/13 11:03:33;;;;;;;0.10;0.00;;;11.10;64.60;;;10.25;46.16;100978.22;5063239;28;20057;-45
2021/04/13 11:06:31;;;;;;;0.30;0.00;;;11.00;66.70;;;10.15;46.72;100981.69;5063449;28;20055;-46
2021/04/13 11:09:21;;;;;;;1.75;0.00;;;10.80;65.40;;;10.41;46.53;100984.72;5059986;28;20186;-47
2021/04/13 11:12:24;;;;;;;0.10;0.00;;;11.00;65.40;;;10.42;44.82;100981.16;5065629;28;20052;-45
2021/04/13 11:15:50;;;;;;;0.35;0.10;;;11.10;64.10;;;10.30;46.14;100963.03;5066051;28;20036;-50
2021/04/13 11:18:53;;;;;;;0.20;0.00;;;11.00;64.10;;;10.47;43.84;100976.38;5047781;28;20045;-45
2021/04/13 11:22:05;;;;;;;0.05;0.00;;;11.10;62.20;;;10.67;44.43;100964.25;5047702;28;20358;-49
2021/04/13 11:25:07;;;;;;;0.73;0.00;;;11.20;62.60;;;10.69;45.61;100957.13;5047518;28;20052;-45
2021/04/13 11:28:15;;;;;;;0.90;0.10;;;11.30;63.20;;;10.67;45.85;100967.69;5048680;28;20041;-50
2021/04/13 11:31:19;;;;;;;;;;;11.20;64.30;;;10.95;44.54;100959.09;5027408;28;20544;-47
2021/04/13 11:34:09;;;;;;;1.48;0.00;;;11.40;62.20;;;10.72;43.28;100972.50;5030685;28;19920;-43